sensor_id;sensor_type;location;lat;lon;timestamp;P1;durP1;ratioP1;P2;durP2;ratioP2
57697;SDS011;43531;52.152;6.366;2023-10-09T00:00:28;11.18;;;7.28;;
57697;SDS011;43531;52.152;6.366;2023-10-09T00:01:22;11.13;;;7.82;;
57697;SDS011;43531;52.152;6.366;2023-10-09T00:01:53;12.35;;;7.40;;
57697;SDS011;43531;52.152;6.366;2023-10-09T00:02:25;13.63;;;6.68;;
57697;SDS011;43531;52.152;6.366;2023-10-09T00:02:57;13.77;;;6.97;;
57697;SDS011;43531;52.152;6.366;2023-10-09T00:03:32;12.57;;;7.40;;
57697;SDS011;43531;52.152;6.366;2023-10-09T00:04:04;10.85;;;7.38;;
57697;SDS011;43531;52.152;6.366;2023-10-09T00:04:36;9.80;;;6.78;;
57697;SDS011;43531;52.152;6.366;2023-10-09T00:05:10;13.63;;;7.18;;
57697;SDS011;43531;52.152;6.366;2023-10-09T00:05:50;11.23;;;6.80;;
57697;SDS011;43531;52.152;6.366;2023-10-09T00:06:25;12.13;;;6.95;;
57697;SDS011;43531;52.152;6.366;2023-10-09T00:07:08;14.68;;;7.57;;
57697;SDS011;43531;52.152;6.366;2023-10-09T00:07:40;23.30;;;7.03;;
57697;SDS011;43531;52.152;6.366;2023-10-09T00:08:12;16.67;;;7.63;;
57697;SDS011;43531;52.152;6.366;2023-10-09T00:08:50;12.95;;;8.25;;
57697;SDS011;43531;52.152;6.366;2023-10-09T00:09:25;16.33;;;8.70;;
57697;SDS011;43531;52.152;6.366;2023-10-09T00:10:02;14.20;;;7.47;;
57697;SDS011;43531;52.152;6.366;2023-10-09T00:10:43;12.85;;;7.95;;
57697;SDS011;43531;52.152;6.366;2023-10-09T00:11:24;12.85;;;7.63;;
57697;SDS011;43531;52.152;6.366;2023-10-09T00:12:01;12.23;;;7.45;;
57697;SDS011;43531;52.152;6.366;2023-10-09T00:12:41;18.60;;;8.18;;
57697;SDS011;43531;52.152;6.366;2023-10-09T00:13:14;18.77;;;9.40;;
57697;SDS011;43531;52.152;6.366;2023-10-09T00:13:47;15.73;;;7.97;;
57697;SDS011;43531;52.152;6.366;2023-10-09T00:14:24;13.25;;;7.95;;
57697;SDS011;43531;52.152;6.366;2023-10-09T00:14:57;24.00;;;10.10;;
57697;SDS011;43531;52.152;6.366;2023-10-09T00:15:38;17.27;;;10.18;;
57697;SDS011;43531;52.152;6.366;2023-10-09T00:16:10;16.52;;;8.88;;
57697;SDS011;43531;52.152;6.366;2023-10-09T00:16:46;18.42;;;8.48;;
57697;SDS011;43531;52.152;6.366;2023-10-09T00:17:27;15.77;;;8.45;;
57697;SDS011;43531;52.152;6.366;2023-10-09T00:18:02;17.23;;;10.25;;
57697;SDS011;43531;52.152;6.366;2023-10-09T00:18:43;16.60;;;8.15;;
57697;SDS011;43531;52.152;6.366;2023-10-09T00:19:18;15.85;;;8.38;;
57697;SDS011;43531;52.152;6.366;2023-10-09T00:19:51;13.18;;;7.85;;
57697;SDS011;43531;52.152;6.366;2023-10-09T00:20:24;14.20;;;8.32;;
57697;SDS011;43531;52.152;6.366;2023-10-09T00:21:08;18.02;;;9.02;;
57697;SDS011;43531;52.152;6.366;2023-10-09T00:21:47;14.60;;;9.70;;
57697;SDS011;43531;52.152;6.366;2023-10-09T00:22:19;12.95;;;7.93;;
57697;SDS011;43531;52.152;6.366;2023-10-09T00:23:01;21.00;;;8.88;;
57697;SDS011;43531;52.152;6.366;2023-10-09T00:23:33;16.23;;;8.95;;
57697;SDS011;43531;52.152;6.366;2023-10-09T00:24:05;13.70;;;9.82;;
57697;SDS011;43531;52.152;6.366;2023-10-09T00:24:45;15.02;;;8.80;;
57697;SDS011;43531;52.152;6.366;2023-10-09T00:25:21;13.93;;;8.38;;
57697;SDS011;43531;52.152;6.366;2023-10-09T00:25:55;14.65;;;8.35;;
57697;SDS011;43531;52.152;6.366;2023-10-09T00:26:54;16.45;;;8.77;;
57697;SDS011;43531;52.152;6.366;2023-10-09T00:27:45;16.85;;;9.35;;
57697;SDS011;43531;52.152;6.366;2023-10-09T00:28:17;15.38;;;8.85;;
57697;SDS011;43531;52.152;6.366;2023-10-09T00:28:53;13.05;;;9.35;;
57697;SDS011;43531;52.152;6.366;2023-10-09T00:29:24;17.55;;;8.73;;
57697;SDS011;43531;52.152;6.366;2023-10-09T00:30:06;16.55;;;10.02;;
57697;SDS011;43531;52.152;6.366;2023-10-09T00:30:41;16.35;;;8.52;;
57697;SDS011;43531;52.152;6.366;2023-10-09T00:31:13;15.20;;;8.20;;
57697;SDS011;43531;52.152;6.366;2023-10-09T00:31:57;15.02;;;8.63;;
57697;SDS011;43531;52.152;6.366;2023-10-09T00:32:44;20.25;;;9.05;;
57697;SDS011;43531;52.152;6.366;2023-10-09T00:33:31;12.13;;;8.07;;
57697;SDS011;43531;52.152;6.366;2023-10-09T00:34:04;12.57;;;9.52;;
57697;SDS011;43531;52.152;6.366;2023-10-09T00:34:36;12.23;;;7.80;;
57697;SDS011;43531;52.152;6.366;2023-10-09T00:35:11;15.10;;;9.15;;
57697;SDS011;43531;52.152;6.366;2023-10-09T00:36:02;16.25;;;8.80;;
57697;SDS011;43531;52.152;6.366;2023-10-09T00:36:40;18.35;;;11.25;;
57697;SDS011;43531;52.152;6.366;2023-10-09T00:37:22;16.88;;;9.30;;
57697;SDS011;43531;52.152;6.366;2023-10-09T00:37:56;18.88;;;11.07;;
57697;SDS011;43531;52.152;6.366;2023-10-09T00:38:35;15.38;;;8.88;;
57697;SDS011;43531;52.152;6.366;2023-10-09T00:39:18;14.55;;;9.13;;
57697;SDS011;43531;52.152;6.366;2023-10-09T00:40:13;17.08;;;8.80;;
57697;SDS011;43531;52.152;6.366;2023-10-09T00:40:52;17.98;;;9.25;;
57697;SDS011;43531;52.152;6.366;2023-10-09T00:41:53;12.88;;;8.25;;
57697;SDS011;43531;52.152;6.366;2023-10-09T00:42:25;15.65;;;9.57;;
57697;SDS011;43531;52.152;6.366;2023-10-09T00:43:08;16.98;;;9.20;;
57697;SDS011;43531;52.152;6.366;2023-10-09T00:43:44;17.70;;;10.02;;
57697;SDS011;43531;52.152;6.366;2023-10-09T00:44:16;13.43;;;9.25;;
57697;SDS011;43531;52.152;6.366;2023-10-09T00:44:48;19.05;;;10.10;;
57697;SDS011;43531;52.152;6.366;2023-10-09T00:45:20;18.88;;;9.82;;
57697;SDS011;43531;52.152;6.366;2023-10-09T00:45:59;18.05;;;9.90;;
57697;SDS011;43531;52.152;6.366;2023-10-09T00:46:43;17.20;;;11.10;;
57697;SDS011;43531;52.152;6.366;2023-10-09T00:47:14;17.35;;;9.75;;
57697;SDS011;43531;52.152;6.366;2023-10-09T00:48:07;19.05;;;11.68;;
57697;SDS011;43531;52.152;6.366;2023-10-09T00:48:59;17.65;;;9.98;;
57697;SDS011;43531;52.152;6.366;2023-10-09T00:49:33;18.13;;;9.82;;
57697;SDS011;43531;52.152;6.366;2023-10-09T00:50:06;19.80;;;10.77;;
57697;SDS011;43531;52.152;6.366;2023-10-09T00:50:52;18.85;;;11.43;;
57697;SDS011;43531;52.152;6.366;2023-10-09T00:51:24;15.57;;;11.43;;
57697;SDS011;43531;52.152;6.366;2023-10-09T00:51:57;14.80;;;10.38;;
57697;SDS011;43531;52.152;6.366;2023-10-09T00:52:30;20.92;;;11.70;;
57697;SDS011;43531;52.152;6.366;2023-10-09T00:53:24;20.77;;;11.48;;
57697;SDS011;43531;52.152;6.366;2023-10-09T00:54:02;18.58;;;9.60;;
57697;SDS011;43531;52.152;6.366;2023-10-09T00:54:45;15.57;;;10.07;;
57697;SDS011;43531;52.152;6.366;2023-10-09T00:55:22;21.40;;;10.73;;
57697;SDS011;43531;52.152;6.366;2023-10-09T00:56:09;18.73;;;11.80;;
57697;SDS011;43531;52.152;6.366;2023-10-09T00:56:51;17.13;;;10.55;;
57697;SDS011;43531;52.152;6.366;2023-10-09T00:57:30;15.25;;;11.13;;
57697;SDS011;43531;52.152;6.366;2023-10-09T00:58:05;18.73;;;10.43;;
57697;SDS011;43531;52.152;6.366;2023-10-09T00:58:48;20.20;;;12.10;;
57697;SDS011;43531;52.152;6.366;2023-10-09T00:59:30;17.25;;;10.52;;
57697;SDS011;43531;52.152;6.366;2023-10-09T01:00:02;21.13;;;11.07;;
57697;SDS011;43531;52.152;6.366;2023-10-09T01:00:42;24.70;;;12.10;;
57697;SDS011;43531;52.152;6.366;2023-10-09T01:01:18;18.20;;;11.88;;
57697;SDS011;43531;52.152;6.366;2023-10-09T01:01:50;21.23;;;11.82;;
57697;SDS011;43531;52.152;6.366;2023-10-09T01:02:28;20.95;;;11.23;;
57697;SDS011;43531;52.152;6.366;2023-10-09T01:03:14;21.98;;;12.10;;
57697;SDS011;43531;52.152;6.366;2023-10-09T01:03:48;19.95;;;11.60;;
57697;SDS011;43531;52.152;6.366;2023-10-09T01:04:23;20.55;;;10.18;;
57697;SDS011;43531;52.152;6.366;2023-10-09T01:04:57;23.60;;;13.18;;
57697;SDS011;43531;52.152;6.366;2023-10-09T01:05:29;19.35;;;11.35;;
57697;SDS011;43531;52.152;6.366;2023-10-09T01:06:02;18.95;;;11.57;;
57697;SDS011;43531;52.152;6.366;2023-10-09T01:06:41;23.10;;;11.80;;
57697;SDS011;43531;52.152;6.366;2023-10-09T01:07:19;19.38;;;11.80;;
57697;SDS011;43531;52.152;6.366;2023-10-09T01:07:57;21.55;;;12.02;;
57697;SDS011;43531;52.152;6.366;2023-10-09T01:08:29;16.10;;;10.82;;
57697;SDS011;43531;52.152;6.366;2023-10-09T01:09:02;20.75;;;12.05;;
57697;SDS011;43531;52.152;6.366;2023-10-09T01:09:44;17.98;;;10.15;;
57697;SDS011;43531;52.152;6.366;2023-10-09T01:10:15;23.92;;;11.05;;
57697;SDS011;43531;52.152;6.366;2023-10-09T01:10:47;22.77;;;11.63;;
57697;SDS011;43531;52.152;6.366;2023-10-09T01:11:27;21.85;;;11.63;;
57697;SDS011;43531;52.152;6.366;2023-10-09T01:12:02;19.10;;;12.20;;
57697;SDS011;43531;52.152;6.366;2023-10-09T01:12:33;23.58;;;12.85;;
57697;SDS011;43531;52.152;6.366;2023-10-09T01:13:05;27.30;;;11.85;;
57697;SDS011;43531;52.152;6.366;2023-10-09T01:13:41;18.70;;;11.23;;
57697;SDS011;43531;52.152;6.366;2023-10-09T01:14:24;17.23;;;9.55;;
57697;SDS011;43531;52.152;6.366;2023-10-09T01:14:56;19.60;;;11.85;;
57697;SDS011;43531;52.152;6.366;2023-10-09T01:15:31;27.17;;;11.88;;
57697;SDS011;43531;52.152;6.366;2023-10-09T01:16:15;22.48;;;10.25;;
57697;SDS011;43531;52.152;6.366;2023-10-09T01:16:48;22.75;;;11.52;;
57697;SDS011;43531;52.152;6.366;2023-10-09T01:17:20;16.58;;;10.23;;
57697;SDS011;43531;52.152;6.366;2023-10-09T01:18:07;23.17;;;13.32;;
57697;SDS011;43531;52.152;6.366;2023-10-09T01:18:42;20.55;;;11.98;;
57697;SDS011;43531;52.152;6.366;2023-10-09T01:19:44;18.70;;;11.02;;
57697;SDS011;43531;52.152;6.366;2023-10-09T01:20:21;19.38;;;11.95;;
57697;SDS011;43531;52.152;6.366;2023-10-09T01:20:58;18.98;;;10.63;;
57697;SDS011;43531;52.152;6.366;2023-10-09T01:21:30;26.02;;;12.57;;
57697;SDS011;43531;52.152;6.366;2023-10-09T01:22:04;23.95;;;12.07;;
57697;SDS011;43531;52.152;6.366;2023-10-09T01:22:44;19.05;;;13.23;;
57697;SDS011;43531;52.152;6.366;2023-10-09T01:23:15;18.52;;;11.85;;
57697;SDS011;43531;52.152;6.366;2023-10-09T01:23:47;20.83;;;11.63;;
57697;SDS011;43531;52.152;6.366;2023-10-09T01:24:34;20.30;;;10.85;;
57697;SDS011;43531;52.152;6.366;2023-10-09T01:25:10;19.75;;;11.98;;
57697;SDS011;43531;52.152;6.366;2023-10-09T01:25:43;20.08;;;11.70;;
57697;SDS011;43531;52.152;6.366;2023-10-09T01:26:16;21.20;;;12.20;;
57697;SDS011;43531;52.152;6.366;2023-10-09T01:26:49;20.25;;;11.88;;
57697;SDS011;43531;52.152;6.366;2023-10-09T01:27:25;21.38;;;12.63;;
57697;SDS011;43531;52.152;6.366;2023-10-09T01:28:04;21.60;;;12.35;;
57697;SDS011;43531;52.152;6.366;2023-10-09T01:28:36;16.40;;;10.32;;
57697;SDS011;43531;52.152;6.366;2023-10-09T01:29:14;26.42;;;11.75;;
57697;SDS011;43531;52.152;6.366;2023-10-09T01:29:46;26.35;;;12.45;;
57697;SDS011;43531;52.152;6.366;2023-10-09T01:30:18;15.45;;;10.48;;
57697;SDS011;43531;52.152;6.366;2023-10-09T01:30:51;29.88;;;13.65;;
57697;SDS011;43531;52.152;6.366;2023-10-09T01:31:24;20.05;;;11.77;;
57697;SDS011;43531;52.152;6.366;2023-10-09T01:31:57;25.77;;;12.88;;
57697;SDS011;43531;52.152;6.366;2023-10-09T01:32:32;25.05;;;13.57;;
57697;SDS011;43531;52.152;6.366;2023-10-09T01:33:06;25.42;;;13.07;;
57697;SDS011;43531;52.152;6.366;2023-10-09T01:33:44;19.40;;;12.85;;
57697;SDS011;43531;52.152;6.366;2023-10-09T01:34:17;23.80;;;14.30;;
57697;SDS011;43531;52.152;6.366;2023-10-09T01:35:19;24.23;;;11.93;;
57697;SDS011;43531;52.152;6.366;2023-10-09T01:35:54;21.27;;;11.85;;
57697;SDS011;43531;52.152;6.366;2023-10-09T01:36:30;26.15;;;13.43;;
57697;SDS011;43531;52.152;6.366;2023-10-09T01:37:06;23.70;;;12.98;;
57697;SDS011;43531;52.152;6.366;2023-10-09T01:37:51;28.98;;;14.27;;
57697;SDS011;43531;52.152;6.366;2023-10-09T01:38:23;23.30;;;12.60;;
57697;SDS011;43531;52.152;6.366;2023-10-09T01:39:11;24.88;;;12.93;;
57697;SDS011;43531;52.152;6.366;2023-10-09T01:39:57;22.45;;;12.65;;
57697;SDS011;43531;52.152;6.366;2023-10-09T01:40:31;18.00;;;13.13;;
57697;SDS011;43531;52.152;6.366;2023-10-09T01:41:11;21.40;;;12.20;;
57697;SDS011;43531;52.152;6.366;2023-10-09T01:41:47;22.73;;;12.73;;
57697;SDS011;43531;52.152;6.366;2023-10-09T01:42:21;31.45;;;15.20;;
57697;SDS011;43531;52.152;6.366;2023-10-09T01:43:01;24.88;;;13.73;;
57697;SDS011;43531;52.152;6.366;2023-10-09T01:43:35;21.48;;;13.15;;
57697;SDS011;43531;52.152;6.366;2023-10-09T01:44:06;25.77;;;15.25;;
57697;SDS011;43531;52.152;6.366;2023-10-09T01:44:44;33.47;;;14.98;;
57697;SDS011;43531;52.152;6.366;2023-10-09T01:45:18;27.25;;;13.05;;
57697;SDS011;43531;52.152;6.366;2023-10-09T01:45:50;23.27;;;12.57;;
57697;SDS011;43531;52.152;6.366;2023-10-09T01:46:23;27.77;;;14.52;;
57697;SDS011;43531;52.152;6.366;2023-10-09T01:46:55;26.42;;;12.93;;
57697;SDS011;43531;52.152;6.366;2023-10-09T01:47:28;20.58;;;13.70;;
57697;SDS011;43531;52.152;6.366;2023-10-09T01:48:04;22.70;;;13.57;;
57697;SDS011;43531;52.152;6.366;2023-10-09T01:48:37;27.70;;;15.07;;
57697;SDS011;43531;52.152;6.366;2023-10-09T01:49:13;30.63;;;14.90;;
57697;SDS011;43531;52.152;6.366;2023-10-09T01:49:49;28.38;;;14.45;;
57697;SDS011;43531;52.152;6.366;2023-10-09T01:50:24;24.88;;;14.77;;
57697;SDS011;43531;52.152;6.366;2023-10-09T01:51:02;28.13;;;14.18;;
57697;SDS011;43531;52.152;6.366;2023-10-09T01:51:36;24.58;;;14.25;;
57697;SDS011;43531;52.152;6.366;2023-10-09T01:52:10;26.67;;;14.10;;
57697;SDS011;43531;52.152;6.366;2023-10-09T01:52:48;23.27;;;13.35;;
57697;SDS011;43531;52.152;6.366;2023-10-09T01:53:21;19.40;;;13.05;;
57697;SDS011;43531;52.152;6.366;2023-10-09T01:53:56;25.70;;;16.23;;
57697;SDS011;43531;52.152;6.366;2023-10-09T01:54:30;24.42;;;13.38;;
57697;SDS011;43531;52.152;6.366;2023-10-09T01:55:15;33.83;;;14.45;;
57697;SDS011;43531;52.152;6.366;2023-10-09T01:56:08;24.52;;;12.70;;
57697;SDS011;43531;52.152;6.366;2023-10-09T01:57:18;23.13;;;13.35;;
57697;SDS011;43531;52.152;6.366;2023-10-09T01:57:54;25.48;;;13.52;;
57697;SDS011;43531;52.152;6.366;2023-10-09T01:58:30;28.45;;;14.30;;
57697;SDS011;43531;52.152;6.366;2023-10-09T01:59:04;29.05;;;15.15;;
57697;SDS011;43531;52.152;6.366;2023-10-09T01:59:37;31.13;;;13.68;;
57697;SDS011;43531;52.152;6.366;2023-10-09T02:00:10;28.48;;;14.88;;
57697;SDS011;43531;52.152;6.366;2023-10-09T02:00:54;27.85;;;14.88;;
57697;SDS011;43531;52.152;6.366;2023-10-09T02:01:27;30.23;;;14.00;;
57697;SDS011;43531;52.152;6.366;2023-10-09T02:01:59;24.58;;;13.60;;
57697;SDS011;43531;52.152;6.366;2023-10-09T02:02:32;29.27;;;15.10;;
57697;SDS011;43531;52.152;6.366;2023-10-09T02:03:06;29.42;;;13.85;;
57697;SDS011;43531;52.152;6.366;2023-10-09T02:03:44;22.73;;;15.57;;
57697;SDS011;43531;52.152;6.366;2023-10-09T02:04:17;25.33;;;14.10;;
57697;SDS011;43531;52.152;6.366;2023-10-09T02:04:51;26.25;;;14.80;;
57697;SDS011;43531;52.152;6.366;2023-10-09T02:05:42;25.23;;;13.00;;
57697;SDS011;43531;52.152;6.366;2023-10-09T02:06:14;24.08;;;14.57;;
57697;SDS011;43531;52.152;6.366;2023-10-09T02:06:56;25.45;;;15.15;;
57697;SDS011;43531;52.152;6.366;2023-10-09T02:07:28;29.25;;;15.02;;
57697;SDS011;43531;52.152;6.366;2023-10-09T02:08:01;27.55;;;14.68;;
57697;SDS011;43531;52.152;6.366;2023-10-09T02:08:37;25.92;;;14.65;;
57697;SDS011;43531;52.152;6.366;2023-10-09T02:09:09;29.40;;;15.93;;
57697;SDS011;43531;52.152;6.366;2023-10-09T02:09:50;26.48;;;14.73;;
57697;SDS011;43531;52.152;6.366;2023-10-09T02:10:22;27.85;;;17.38;;
57697;SDS011;43531;52.152;6.366;2023-10-09T02:10:57;24.85;;;16.50;;
57697;SDS011;43531;52.152;6.366;2023-10-09T02:11:29;25.30;;;14.90;;
57697;SDS011;43531;52.152;6.366;2023-10-09T02:12:08;27.17;;;15.40;;
57697;SDS011;43531;52.152;6.366;2023-10-09T02:12:39;26.75;;;15.48;;
57697;SDS011;43531;52.152;6.366;2023-10-09T02:13:12;27.73;;;15.13;;
57697;SDS011;43531;52.152;6.366;2023-10-09T02:13:48;22.33;;;13.13;;
57697;SDS011;43531;52.152;6.366;2023-10-09T02:14:25;29.50;;;15.63;;
57697;SDS011;43531;52.152;6.366;2023-10-09T02:14:56;25.63;;;14.98;;
57697;SDS011;43531;52.152;6.366;2023-10-09T02:15:29;26.33;;;14.88;;
57697;SDS011;43531;52.152;6.366;2023-10-09T02:16:14;27.52;;;15.00;;
57697;SDS011;43531;52.152;6.366;2023-10-09T02:16:47;24.50;;;13.00;;
57697;SDS011;43531;52.152;6.366;2023-10-09T02:17:33;25.23;;;14.20;;
57697;SDS011;43531;52.152;6.366;2023-10-09T02:18:05;27.98;;;15.70;;
57697;SDS011;43531;52.152;6.366;2023-10-09T02:18:48;24.05;;;14.13;;
57697;SDS011;43531;52.152;6.366;2023-10-09T02:19:28;30.00;;;15.88;;
57697;SDS011;43531;52.152;6.366;2023-10-09T02:20:07;30.48;;;15.23;;
57697;SDS011;43531;52.152;6.366;2023-10-09T02:20:49;25.20;;;14.45;;
57697;SDS011;43531;52.152;6.366;2023-10-09T02:21:28;22.95;;;15.27;;
57697;SDS011;43531;52.152;6.366;2023-10-09T02:22:11;26.52;;;15.68;;
57697;SDS011;43531;52.152;6.366;2023-10-09T02:22:46;31.67;;;15.30;;
57697;SDS011;43531;52.152;6.366;2023-10-09T02:23:17;26.60;;;13.57;;
57697;SDS011;43531;52.152;6.366;2023-10-09T02:23:52;28.13;;;15.05;;
57697;SDS011;43531;52.152;6.366;2023-10-09T02:24:28;27.20;;;16.23;;
57697;SDS011;43531;52.152;6.366;2023-10-09T02:25:18;27.90;;;14.30;;
57697;SDS011;43531;52.152;6.366;2023-10-09T02:25:59;28.17;;;16.23;;
57697;SDS011;43531;52.152;6.366;2023-10-09T02:26:36;26.77;;;15.18;;
57697;SDS011;43531;52.152;6.366;2023-10-09T02:27:10;24.13;;;14.57;;
57697;SDS011;43531;52.152;6.366;2023-10-09T02:27:43;28.75;;;16.27;;
57697;SDS011;43531;52.152;6.366;2023-10-09T02:28:24;23.23;;;14.77;;
57697;SDS011;43531;52.152;6.366;2023-10-09T02:28:56;28.52;;;15.63;;
57697;SDS011;43531;52.152;6.366;2023-10-09T02:29:31;29.15;;;16.30;;
57697;SDS011;43531;52.152;6.366;2023-10-09T02:30:06;26.83;;;15.75;;
57697;SDS011;43531;52.152;6.366;2023-10-09T02:30:51;30.30;;;15.90;;
57697;SDS011;43531;52.152;6.366;2023-10-09T02:31:23;23.60;;;14.95;;
57697;SDS011;43531;52.152;6.366;2023-10-09T02:31:57;25.90;;;14.10;;
57697;SDS011;43531;52.152;6.366;2023-10-09T02:32:44;24.55;;;14.75;;
57697;SDS011;43531;52.152;6.366;2023-10-09T02:33:20;27.40;;;14.90;;
57697;SDS011;43531;52.152;6.366;2023-10-09T02:33:59;26.42;;;15.73;;
57697;SDS011;43531;52.152;6.366;2023-10-09T02:34:31;26.00;;;15.93;;
57697;SDS011;43531;52.152;6.366;2023-10-09T02:35:10;27.55;;;15.68;;
57697;SDS011;43531;52.152;6.366;2023-10-09T02:36:02;27.85;;;15.07;;
57697;SDS011;43531;52.152;6.366;2023-10-09T02:36:37;30.20;;;15.63;;
57697;SDS011;43531;52.152;6.366;2023-10-09T02:37:21;23.77;;;14.95;;
57697;SDS011;43531;52.152;6.366;2023-10-09T02:37:57;27.27;;;16.65;;
57697;SDS011;43531;52.152;6.366;2023-10-09T02:38:29;28.02;;;15.18;;
57697;SDS011;43531;52.152;6.366;2023-10-09T02:39:03;27.10;;;16.27;;
57697;SDS011;43531;52.152;6.366;2023-10-09T02:39:37;24.90;;;15.63;;
57697;SDS011;43531;52.152;6.366;2023-10-09T02:40:15;25.73;;;15.43;;
57697;SDS011;43531;52.152;6.366;2023-10-09T02:41:00;27.10;;;14.55;;
57697;SDS011;43531;52.152;6.366;2023-10-09T02:41:35;24.75;;;14.40;;
57697;SDS011;43531;52.152;6.366;2023-10-09T02:42:55;26.77;;;13.32;;
57697;SDS011;43531;52.152;6.366;2023-10-09T02:43:27;29.42;;;15.70;;
57697;SDS011;43531;52.152;6.366;2023-10-09T02:43:59;29.33;;;17.73;;
57697;SDS011;43531;52.152;6.366;2023-10-09T02:44:42;27.92;;;15.85;;
57697;SDS011;43531;52.152;6.366;2023-10-09T02:46:01;26.33;;;13.95;;
57697;SDS011;43531;52.152;6.366;2023-10-09T02:46:45;28.63;;;15.98;;
57697;SDS011;43531;52.152;6.366;2023-10-09T02:47:19;28.92;;;15.95;;
57697;SDS011;43531;52.152;6.366;2023-10-09T02:47:52;30.38;;;16.33;;
57697;SDS011;43531;52.152;6.366;2023-10-09T02:48:27;25.75;;;15.05;;
57697;SDS011;43531;52.152;6.366;2023-10-09T02:49:02;33.83;;;16.17;;
57697;SDS011;43531;52.152;6.366;2023-10-09T02:49:39;29.77;;;15.23;;
57697;SDS011;43531;52.152;6.366;2023-10-09T02:50:11;34.70;;;16.90;;
57697;SDS011;43531;52.152;6.366;2023-10-09T02:50:43;28.33;;;15.25;;
57697;SDS011;43531;52.152;6.366;2023-10-09T02:51:16;26.52;;;14.80;;
57697;SDS011;43531;52.152;6.366;2023-10-09T02:51:58;28.23;;;14.80;;
57697;SDS011;43531;52.152;6.366;2023-10-09T02:52:30;27.05;;;16.63;;
57697;SDS011;43531;52.152;6.366;2023-10-09T02:53:12;25.38;;;15.48;;
57697;SDS011;43531;52.152;6.366;2023-10-09T02:53:50;28.25;;;15.95;;
57697;SDS011;43531;52.152;6.366;2023-10-09T02:54:21;26.45;;;15.65;;
57697;SDS011;43531;52.152;6.366;2023-10-09T02:54:53;26.20;;;15.68;;
57697;SDS011;43531;52.152;6.366;2023-10-09T02:55:31;26.48;;;13.73;;
57697;SDS011;43531;52.152;6.366;2023-10-09T02:56:10;28.20;;;14.93;;
57697;SDS011;43531;52.152;6.366;2023-10-09T02:56:45;34.25;;;16.45;;
57697;SDS011;43531;52.152;6.366;2023-10-09T02:57:19;31.95;;;16.10;;
57697;SDS011;43531;52.152;6.366;2023-10-09T02:57:55;29.95;;;16.67;;
57697;SDS011;43531;52.152;6.366;2023-10-09T02:58:52;26.17;;;15.40;;
57697;SDS011;43531;52.152;6.366;2023-10-09T02:59:36;30.40;;;15.05;;
57697;SDS011;43531;52.152;6.366;2023-10-09T03:00:10;24.85;;;13.73;;
57697;SDS011;43531;52.152;6.366;2023-10-09T03:01:23;26.90;;;16.08;;
57697;SDS011;43531;52.152;6.366;2023-10-09T03:01:54;23.42;;;15.55;;
57697;SDS011;43531;52.152;6.366;2023-10-09T03:02:26;33.83;;;17.10;;
57697;SDS011;43531;52.152;6.366;2023-10-09T03:02:58;23.95;;;15.65;;
57697;SDS011;43531;52.152;6.366;2023-10-09T03:03:30;25.75;;;15.15;;
57697;SDS011;43531;52.152;6.366;2023-10-09T03:04:02;24.50;;;15.13;;
57697;SDS011;43531;52.152;6.366;2023-10-09T03:04:37;32.08;;;17.33;;
57697;SDS011;43531;52.152;6.366;2023-10-09T03:05:10;29.48;;;15.18;;
57697;SDS011;43531;52.152;6.366;2023-10-09T03:05:44;28.73;;;17.25;;
57697;SDS011;43531;52.152;6.366;2023-10-09T03:06:15;26.90;;;15.65;;
57697;SDS011;43531;52.152;6.366;2023-10-09T03:07:02;29.80;;;16.42;;
57697;SDS011;43531;52.152;6.366;2023-10-09T03:07:35;28.58;;;16.70;;
57697;SDS011;43531;52.152;6.366;2023-10-09T03:08:07;27.20;;;15.85;;
57697;SDS011;43531;52.152;6.366;2023-10-09T03:08:40;25.33;;;14.85;;
57697;SDS011;43531;52.152;6.366;2023-10-09T03:09:12;24.50;;;15.15;;
57697;SDS011;43531;52.152;6.366;2023-10-09T03:09:49;26.65;;;16.25;;
57697;SDS011;43531;52.152;6.366;2023-10-09T03:10:24;25.63;;;15.95;;
57697;SDS011;43531;52.152;6.366;2023-10-09T03:10:56;29.77;;;16.98;;
57697;SDS011;43531;52.152;6.366;2023-10-09T03:11:30;28.50;;;14.98;;
57697;SDS011;43531;52.152;6.366;2023-10-09T03:12:03;27.60;;;16.15;;
57697;SDS011;43531;52.152;6.366;2023-10-09T03:12:37;29.55;;;16.10;;
57697;SDS011;43531;52.152;6.366;2023-10-09T03:13:10;25.30;;;15.73;;
57697;SDS011;43531;52.152;6.366;2023-10-09T03:13:42;28.38;;;16.15;;
57697;SDS011;43531;52.152;6.366;2023-10-09T03:14:16;27.42;;;16.23;;
57697;SDS011;43531;52.152;6.366;2023-10-09T03:14:48;31.08;;;16.63;;
57697;SDS011;43531;52.152;6.366;2023-10-09T03:15:20;30.15;;;16.10;;
57697;SDS011;43531;52.152;6.366;2023-10-09T03:15:52;26.63;;;15.00;;
57697;SDS011;43531;52.152;6.366;2023-10-09T03:16:23;30.48;;;16.33;;
57697;SDS011;43531;52.152;6.366;2023-10-09T03:16:55;25.52;;;16.60;;
57697;SDS011;43531;52.152;6.366;2023-10-09T03:17:30;27.75;;;15.18;;
57697;SDS011;43531;52.152;6.366;2023-10-09T03:18:05;30.00;;;16.55;;
57697;SDS011;43531;52.152;6.366;2023-10-09T03:18:37;28.33;;;16.60;;
57697;SDS011;43531;52.152;6.366;2023-10-09T03:19:08;24.50;;;15.68;;
57697;SDS011;43531;52.152;6.366;2023-10-09T03:19:44;29.08;;;16.50;;
57697;SDS011;43531;52.152;6.366;2023-10-09T03:20:17;26.85;;;16.48;;
57697;SDS011;43531;52.152;6.366;2023-10-09T03:20:49;23.92;;;15.10;;
57697;SDS011;43531;52.152;6.366;2023-10-09T03:21:21;25.73;;;14.85;;
57697;SDS011;43531;52.152;6.366;2023-10-09T03:21:53;28.20;;;16.35;;
57697;SDS011;43531;52.152;6.366;2023-10-09T03:22:25;30.20;;;17.13;;
57697;SDS011;43531;52.152;6.366;2023-10-09T03:22:56;27.20;;;15.40;;
57697;SDS011;43531;52.152;6.366;2023-10-09T03:23:28;27.10;;;15.93;;
57697;SDS011;43531;52.152;6.366;2023-10-09T03:24:01;27.98;;;15.38;;
57697;SDS011;43531;52.152;6.366;2023-10-09T03:24:36;36.55;;;16.30;;
57697;SDS011;43531;52.152;6.366;2023-10-09T03:25:08;32.35;;;17.08;;
57697;SDS011;43531;52.152;6.366;2023-10-09T03:25:45;30.52;;;16.33;;
57697;SDS011;43531;52.152;6.366;2023-10-09T03:26:19;29.58;;;15.75;;
57697;SDS011;43531;52.152;6.366;2023-10-09T03:26:53;25.65;;;16.88;;
57697;SDS011;43531;52.152;6.366;2023-10-09T03:27:27;28.48;;;16.75;;
57697;SDS011;43531;52.152;6.366;2023-10-09T03:27:59;29.92;;;15.13;;
57697;SDS011;43531;52.152;6.366;2023-10-09T03:28:30;25.65;;;16.85;;
57697;SDS011;43531;52.152;6.366;2023-10-09T03:29:02;24.10;;;15.60;;
57697;SDS011;43531;52.152;6.366;2023-10-09T03:29:37;28.60;;;17.33;;
57697;SDS011;43531;52.152;6.366;2023-10-09T03:30:09;25.58;;;15.73;;
57697;SDS011;43531;52.152;6.366;2023-10-09T03:30:47;30.38;;;16.90;;
57697;SDS011;43531;52.152;6.366;2023-10-09T03:31:19;28.70;;;15.38;;
57697;SDS011;43531;52.152;6.366;2023-10-09T03:31:51;30.13;;;15.40;;
57697;SDS011;43531;52.152;6.366;2023-10-09T03:32:23;26.67;;;16.85;;
57697;SDS011;43531;52.152;6.366;2023-10-09T03:32:55;26.70;;;15.10;;
57697;SDS011;43531;52.152;6.366;2023-10-09T03:33:28;28.50;;;16.52;;
57697;SDS011;43531;52.152;6.366;2023-10-09T03:34:04;30.70;;;16.23;;
57697;SDS011;43531;52.152;6.366;2023-10-09T03:34:36;33.40;;;17.25;;
57697;SDS011;43531;52.152;6.366;2023-10-09T03:35:08;29.48;;;15.95;;
57697;SDS011;43531;52.152;6.366;2023-10-09T03:35:42;23.67;;;16.13;;
57697;SDS011;43531;52.152;6.366;2023-10-09T03:36:14;24.13;;;16.90;;
57697;SDS011;43531;52.152;6.366;2023-10-09T03:36:48;34.40;;;16.60;;